Latest Coastal Weather Observations for Minlaton Airport

IDS60701

Issued at 5:41 pm CST Sunday 26 June 2016 (issued every 10 minutes, with the page automatically refreshed every 10 minutes)

About coastal observations | Map of coastal stations | Coastal observations for SA | Marine services | Other Formats
Station Details ID: 022031 Name: MINLATON AERO Lat: -34.75 Lon: 137.53 Height: 32.0 m
Data from the previous 72 hours. | See also: Recent months at Minlaton Airport
Date/Time
CST
Temp
°C
Wind Pressure Rain since
9am
mm
Weather Cloud Vis
km
Sea
Height
m
Swell
Dir  Spd
kts
Gust
kts
hPa Trend Height
m
Period
s
Dir
26/05:30pm 11.5 NW 7 8 1015.4 - 1.8 - - - - - - -
26/05:00pm 12.1 WNW 8 11 1015.2 - 1.8 - - - - - - -
26/04:30pm 12.6 NW 10 12 1015.1 - 1.8 - - - - - - -
26/04:00pm 12.3 NW 9 11 1015.0 - 1.8 - - - - - - -
26/03:30pm 12.6 NW 11 13 1015.0 - 1.8 - - - - - - -
26/03:00pm 13.0 WNW 12 14 1015.1 - 1.8 - - - - - - -
26/02:30pm 12.8 NW 12 15 1015.2 - 1.8 - - - - - - -
26/02:00pm 12.6 NW 13 17 1015.4 - 1.8 - - - - - - -
26/01:30pm 13.3 NW 16 19 1015.5 - 1.8 - - - - - - -
26/01:00pm 13.1 NNW 15 19 1015.7 - 1.8 - - - - - - -
26/12:30pm 13.2 NNW 16 20 1016.0 - 1.8 - - - - - - -
26/12:00pm 12.7 NNW 16 20 1016.5 - 1.8 - - - - - - -
26/11:30am 13.9 NNW 15 19 1016.9 - 1.8 - - - - - - -
26/11:00am 13.1 NNW 14 17 1017.2 - 1.8 - - - - - - -
26/10:30am 12.2 N 9 11 1017.7 - 1.8 - - - - - - -
26/10:00am 11.5 NE 5 7 1017.8 - 1.8 - - - - - - -
26/09:30am 9.1 NW 5 7 1018.1 - 1.6 - - - - - - -
26/09:00am 9.0 N 10 16 1017.9 - 3.0 Rain - - - - - -
26/08:30am 8.6 WNW 9 13 1018.3 - 2.0 - - - - - - -
26/08:00am 8.8 NNW 8 11 1017.9 - 0.4 - - - - - - -
26/07:39am 9.0 N 9 17 1017.7 - 0.0 - - - - - - -
26/07:30am 9.0 N 5 9 1017.6 - 0.0 - - - - - - -
26/07:00am 9.0 NNE 10 11 1017.5 - 0.0 - - - - - - -
26/06:30am 9.0 NNE 9 10 1017.2 - 0.0 - - - - - - -
26/06:00am 8.8 NE 9 11 1017.1 - 0.0 - - - - - - -
26/05:30am 9.6 NNE 9 12 1017.1 - 0.0 - - - - - - -
26/05:00am 10.2 N 6 8 1017.3 - 0.0 - - - - - - -
26/04:30am 9.8 N 8 11 1017.7 - 0.0 - - - - - - -
26/04:00am 9.9 N 8 11 1018.0 - 0.0 - - - - - - -
26/03:30am 9.8 N 6 10 1018.2 - 0.0 - - - - - - -
26/03:00am 9.5 N 7 9 1018.4 - 0.0 - - - - - - -
26/02:30am 9.3 NNE 7 10 1018.6 - 0.0 - - - - - - -
26/02:00am 9.3 NNE 8 9 1018.9 - 0.0 - - - - - - -
26/01:30am 9.4 NNE 9 11 1019.1 - 0.0 - - - - - - -
26/01:00am 9.3 NNE 9 11 1019.2 - 0.0 - - - - - - -
26/12:30am 9.2 NNE 8 9 1019.4 - 0.0 - - - - - - -
26/12:00am 9.6 NNE 8 9 1019.3 - 0.0 - - - - - - -
 
Date/Time
CST
Temp
°C
Wind Pressure Rain since
9am
mm
Weather Cloud Vis
km
Sea
Height
m
Swell
Dir  Spd
kts
Gust
kts
hPa Trend Height
m
Period
s
Dir
25/11:30pm 9.6 N 8 9 1019.8 - 0.0 - - - - - - -
25/11:00pm 9.9 NNE 8 10 1019.9 - 0.0 - - - - - - -
25/10:30pm 9.8 NNE 9 11 1019.9 - 0.0 - - - - - - -
25/10:00pm 9.9 NNE 8 9 1020.4 - 0.0 - - - - - - -
25/09:30pm 10.3 NNE 8 10 1020.6 - 0.0 - - - - - - -
25/09:00pm 10.3 NNE 8 12 1020.4 - 0.0 - - - - - - -
25/08:30pm 10.1 NNE 8 9 1020.4 - 0.0 - - - - - - -
25/08:00pm 10.0 NNE 8 11 1020.9 - 0.0 - - - - - - -
25/07:30pm 10.0 NNE 8 9 1021.0 - 0.0 - - - - - - -
25/07:00pm 9.8 NNE 7 8 1021.4 - 0.0 - - - - - - -
25/06:30pm 9.9 N 8 9 1021.4 - 0.0 - - - - - - -
25/06:00pm 10.1 NNE 7 8 1021.1 - 0.0 - - - - - - -
25/05:30pm 10.4 N 7 9 1021.0 - 0.0 - - - - - - -
25/05:00pm 11.0 N 8 10 1021.2 - 0.0 - - - - - - -
25/04:30pm 11.4 NNW 8 10 1021.3 - 0.0 - - - - - - -
25/04:00pm 11.7 N 8 10 1021.3 - 0.0 - - - - - - -
25/03:30pm 12.1 NNW 10 14 1021.5 - 0.0 - - - - - - -
25/03:00pm 12.1 NNW 11 14 1021.6 - 0.0 - - - - - - -
25/02:30pm 12.1 NNW 12 16 1021.7 - 0.0 - - - - - - -
25/02:00pm 12.4 NW 8 11 1022.0 - 0.0 - - - - - - -
25/01:30pm 12.4 NW 11 13 1022.6 - 0.0 - - - - - - -
25/01:00pm 12.2 NW 12 15 1022.9 - 0.0 - - - - - - -
25/12:30pm 12.0 NNW 14 17 1023.5 - 0.0 - - - - - - -
25/12:00pm 12.2 NW 10 14 1024.0 - 0.0 - - - - - - -
25/11:30am 12.5 NW 12 14 1024.3 - 0.0 - - - - - - -
25/11:00am 12.2 NNW 12 15 1024.5 - 0.0 - - - - - - -
25/10:30am 12.2 N 9 11 1024.7 - 0.0 - - - - - - -
25/10:00am 11.2 N 8 10 1024.7 - 0.0 - - - - - - -
25/09:30am 9.8 N 7 9 1024.6 - 0.0 - - - - - - -
25/09:00am 8.8 N 9 11 1024.5 - 0.8 - - - - - - -
25/08:30am 7.5 NNE 8 9 1024.5 - 0.8 - - - - - - -
25/08:00am 6.0 NE 7 8 1024.4 - 0.8 - - - - - - -
25/07:30am 5.0 NNE 9 9 1024.1 - 0.8 - - - - - - -
25/07:00am 4.4 NNE 8 9 1024.1 - 0.8 - - - - - - -
25/06:30am 5.2 NNE 10 11 1023.9 - 0.8 - - - - - - -
25/06:00am 5.1 NNE 7 8 1023.7 - 0.8 - - - - - - -
25/05:30am 5.6 NNE 8 9 1023.5 - 0.8 - - - - - - -
25/05:00am 6.0 NNE 8 8 1023.3 - 0.8 - - - - - - -
25/04:30am 6.1 NNE 9 9 1023.3 - 0.8 - - - - - - -
25/04:00am 6.1 NNE 9 10 1023.3 - 0.8 - - - - - - -
25/03:30am 5.8 NNE 10 10 1023.2 - 0.8 - - - - - - -
25/03:00am 5.9 NNE 9 10 1023.4 - 0.8 - - - - - - -
25/02:30am 6.7 NE 7 8 1023.5 - 0.8 - - - - - - -
25/02:00am 6.7 NE 7 8 1023.4 - 0.8 - - - - - - -
25/01:30am 6.3 NNE 8 8 1023.5 - 0.8 - - - - - - -
25/01:00am 5.0 NNE 7 8 1023.3 - 0.8 - - - - - - -
25/12:30am 4.9 NNE 8 9 1023.3 - 0.8 - - - - - - -
25/12:00am 5.0 NE 6 7 1023.2 - 0.8 - - - - - - -
 
Date/Time
CST
Temp
°C
Wind Pressure Rain since
9am
mm
Weather Cloud Vis
km
Sea
Height
m
Swell
Dir  Spd
kts
Gust
kts
hPa Trend Height
m
Period
s
Dir
24/11:30pm 5.1 NNE 5 7 1023.2 - 0.8 - - - - - - -
24/11:00pm 5.7 ENE 6 7 1023.3 - 0.8 - - - - - - -
24/10:30pm 5.5 ENE 5 6 1023.2 - 0.8 - - - - - - -
24/10:00pm 5.6 NNE 4 5 1023.2 - 0.8 - - - - - - -
24/09:30pm 5.9 ENE 5 6 1023.1 - 0.8 - - - - - - -
24/09:00pm 6.5 ENE 7 7 1023.0 - 0.8 - - - - - - -
24/08:30pm 6.9 E 6 7 1022.9 - 0.8 - - - - - - -
24/08:00pm 7.6 E 6 8 1022.7 - 0.8 - - - - - - -
24/07:30pm 7.0 SE 4 5 1022.5 - 0.8 - - - - - - -
24/07:00pm 7.5 ESE 4 5 1021.9 - 0.8 - - - - - - -
24/06:30pm 8.9 S 4 6 1021.4 - 0.8 - - - - - - -
24/06:00pm 8.3 SW 4 5 1021.2 - 0.8 - - - - - - -
24/05:30pm 8.8 SSW 4 6 1020.7 - 0.8 - - - - - - -
24/05:00pm 9.6 S 4 5 1020.2 - 0.8 - - - - - - -
24/04:30pm 10.2 SW 12 17 1020.0 - 0.8 - - - - - - -
24/04:00pm 11.5 SW 11 13 1019.2 - 0.0 - - - - - - -
24/03:30pm 10.5 WSW 13 18 1019.0 - 0.0 - - - - - - -
24/03:00pm 12.7 SW 12 15 1018.6 - 0.0 - - - - - - -
24/02:30pm 12.5 SW 20 25 1018.2 - 0.0 - - - - - - -
24/02:00pm 13.0 SW 17 25 1017.8 - 0.0 - - - - - - -
24/01:30pm 13.1 WSW 13 17 1017.8 - 0.0 - - - - - - -
24/01:00pm 13.4 SW 13 18 1017.8 - 0.0 - - - - - - -
24/12:30pm 13.0 SW 14 19 1017.8 - 0.0 - - - - - - -
24/12:00pm 12.0 SSW 13 17 1018.0 - 0.0 - - - - - - -
24/11:30am 11.0 SW 16 23 1018.1 - 0.0 - - - - - - -
24/11:00am 11.2 SSW 18 24 1018.0 - 0.0 - - - - - - -
24/10:30am 11.8 SSW 16 19 1017.6 - 0.0 - - - - - - -
24/10:00am 10.9 SW 16 22 1016.9 - 0.0 - - - - - - -
24/09:30am 10.4 SW 18 25 1016.2 - 0.0 - - - - - - -
24/09:00am 9.9 SW 16 21 1015.5 - 14.6 - - - - - - -
24/08:30am 8.6 SSW 17 23 1015.0 - 14.6 - - - - - - -
24/08:01am 8.6 SW 15 28 1014.2 - 14.6 - - - - - - -
24/08:00am 8.5 SW 14 19 1014.2 - 14.6 - - - - - - -
24/07:30am 7.9 SW 14 18 1013.5 - 14.6 - - - - - - -
24/07:00am 8.2 SW 16 21 1013.1 - 14.6 - - - - - - -
24/06:30am 8.5 SW 18 24 1012.5 - 14.6 - - - - - - -
24/06:00am 9.1 WSW 22 32 1011.8 - 14.4 Recent precip. - - - - - -
24/05:38am 8.5 WSW 21 31 1011.1 - 14.4 - - - - - - -
24/05:30am 7.8 WSW 20 26 1011.2 - 14.4 - - - - - - -
24/05:02am 8.4 SW 21 31 1010.7 - 14.2 - - - - - - -
24/05:00am 8.4 SW 22 31 1010.6 - 14.2 - - - - - - -
24/04:37am 8.3 SW 23 33 1010.4 - 14.2 - - - - - - -
24/04:30am 8.7 SW 24 33 1010.0 - 14.2 - - - - - - -
24/04:08am 8.2 WSW 24 36 1009.8 - 14.2 - - - - - - -
24/04:03am 8.5 SW 21 36 1009.7 - 14.2 - - - - - - -
24/04:01am 8.6 SW 19 31 1009.8 - 14.2 - - - - - - -
24/04:00am 8.5 SW 19 26 1009.8 - 14.2 - - - - - - -
24/03:30am 9.7 WSW 24 41 1009.1 - 14.2 - - - - - - -
24/03:29am 9.8 WSW 24 41 1008.9 - 14.2 - - - - - - -
24/03:03am 9.2 SW 20 32 1008.8 - 14.2 - - - - - - -
24/03:00am 8.7 SW 20 25 1008.8 - 14.2 Recent precip. - - - - - -
24/02:43am 9.3 SW 23 33 1008.4 - 14.2 - - - - - - -
24/02:30am 9.3 WSW 20 24 1008.1 - 14.2 - - - - - - -
24/02:05am 7.8 WSW 28 43 1008.1 - 14.2 - - - - - - -
24/02:00am 7.8 WSW 33 50 1008.2 - 14.0 - - - - - - -
24/01:55am 8.1 WSW 31 50 1007.7 - 13.4 - - - - - - -
24/01:54am 8.6 WSW 31 50 1007.2 - 13.2 - - - - - - -
24/01:53am 9.7 WSW 29 50 1007.0 - 13.2 - - - - - - -
24/01:43am 9.9 WSW 23 33 1007.1 - 13.2 - - - - - - -
24/01:30am 8.2 WSW 18 23 1007.3 - 13.2 - - - - - - -
24/01:10am 9.2 W 25 35 1007.1 - 13.0 - - - - - - -
24/01:00am 8.9 W 21 28 1007.0 - 12.8 - - - - - - -
24/12:34am 8.3 WSW 28 39 1007.3 - 12.2 - - - - - - -
24/12:30am 8.8 W 27 36 1007.3 - 11.8 - - - - - - -
24/12:29am 9.7 W 26 36 1007.3 - 11.6 - - - - - - -
24/12:00am 9.3 WSW 25 33 1007.0 - 11.6 - - - - - - -
 
Date/Time
CST
Temp
°C
Wind Pressure Rain since
9am
mm
Weather Cloud Vis
km
Sea
Height
m
Swell
Dir  Spd
kts
Gust
kts
hPa Trend Height
m
Period
s
Dir
23/11:46pm 11.0 W 22 33 1007.0 - 11.6 - - - - - - -
23/11:30pm 11.2 W 28 35 1006.7 - 11.6 - - - - - - -
23/11:00pm 11.1 W 23 28 1006.4 - 11.6 - - - - - - -
23/10:30pm 10.6 W 21 30 1006.4 - 11.6 - - - - - - -
23/10:04pm 11.0 W 21 33 1006.2 - 11.6 - - - - - - -
23/10:00pm 10.4 W 21 29 1006.3 - 11.6 - - - - - - -
23/09:30pm 11.1 WSW 24 31 1006.1 - 11.6 - - - - - - -
23/09:15pm 11.4 WSW 20 31 1005.9 - 11.6 - - - - - - -
23/09:00pm 11.2 W 23 32 1005.9 - 11.6 Recent precip. - - - - - -
23/08:38pm 10.8 W 20 30 1005.6 - 11.6 - - - - - - -
23/08:30pm 10.2 W 20 29 1005.7 - 11.6 - - - - - - -
23/08:10pm 10.5 W 19 31 1005.5 - 11.4 - - - - - - -
23/08:08pm 10.4 W 17 25 1005.5 - 11.4 - - - - - - -
23/08:00pm 9.6 WSW 13 18 1005.6 - 11.2 - - - - - - -
23/07:48pm 9.7 WSW 22 30 1005.6 - 11.2 - - - - - - -
23/07:30pm 10.7 W 21 29 1005.2 - 11.2 - - - - - - -
23/07:12pm 9.7 W 21 31 1005.1 - 11.2 - - - - - - -
23/07:00pm 10.7 W 21 27 1005.0 - 11.2 - - - - - - -
23/06:30pm 10.6 W 21 29 1004.5 - 11.2 - - - - - - -
23/06:16pm 10.7 WSW 23 33 1004.3 - 11.2 - - - - - - -
23/06:00pm 10.9 W 21 35 1003.9 - 11.2 Recent precip. - - - - - -
23/05:58pm 10.7 W 19 35 1003.8 - 11.2 - - - - - - -

Other Formats:

Comma delimited format used in spreadsheet applications
http://www.bom.gov.au/fwo/IDS60701/IDS60701.95659.axf

JavaScript Object Notation format (JSON) in row-major order
http://www.bom.gov.au/fwo/IDS60701/IDS60701.95659.json